Time;durP1;ratioP1;P1;durP2;ratioP2;P2;SDS_P1;SDS_P2;PMS_P1;PMS_P2;Temp;Humidity;BMP_temperature;BMP_pressure;BME280_temperature;BME280_humidity;BME280_pressure;Samples;Min_cycle;Max_cycle;Signal;HPM_P1;HPM_P2
2022/09/26 00:00:47;;;;;;;10.88;4.97;;;;;;;6.61;100.00;154193.44;4944750;29;20043;-79
2022/09/26 00:03:13;;;;;;;9.60;4.40;;;;;;;6.69;100.00;154212.63;4959570;28;20070;-82
2022/09/26 00:05:39;;;;;;;9.20;4.35;;;;;;;6.66;100.00;154203.66;4916007;29;20049;-81
2022/09/26 00:08:06;;;;;;;12.23;4.47;;;;;;;6.63;100.00;154198.53;4936042;29;20046;-80
2022/09/26 00:10:33;;;;;;;10.65;3.97;;;;;;;6.56;100.00;154179.34;4948442;28;20038;-78
2022/09/26 00:13:00;;;;;;;9.63;3.97;;;;;;;6.53;100.00;154172.94;4941084;29;20047;-81
2022/09/26 00:15:26;;;;;;;9.07;4.03;;;;;;;6.60;100.00;154189.59;4931635;28;20035;-81
2022/09/26 00:17:52;;;;;;;10.07;4.88;;;;;;;6.60;100.00;154189.59;4940731;29;20046;-82
2022/09/26 00:20:18;;;;;;;13.38;3.92;;;;;;;6.68;100.00;154208.78;4928497;28;20043;-80
2022/09/26 00:22:43;;;;;;;8.85;3.90;;;;;;;6.70;100.00;154215.16;4938331;29;20046;-81
2022/09/26 00:25:09;;;;;;;12.98;4.07;;;;;;;6.74;100.00;154224.13;4952920;28;20043;-82
2022/09/26 00:27:35;;;;;;;9.00;3.85;;;;;;;6.75;100.00;154226.69;4944903;28;20529;-80
2022/09/26 00:30:02;;;;;;;10.27;4.15;;;;;;;6.60;100.00;154189.59;4922523;29;20047;-80
2022/09/26 00:32:28;;;;;;;8.85;3.78;;;;;;;6.72;100.00;154220.28;4941357;28;20039;-80
2022/09/26 00:34:54;;;;;;;7.88;3.63;;;;;;;6.68;100.00;154208.78;4917956;29;20042;-80
2022/09/26 00:37:20;;;;;;;10.90;3.75;;;;;;;6.73;100.00;154221.59;4928104;28;20063;-80
2022/09/26 00:39:45;;;;;;;11.05;4.03;;;;;;;6.76;100.00;154230.53;4931135;28;20038;-81
2022/09/26 00:42:15;;;;;;;11.55;4.20;;;;;;;6.72;100.00;154220.28;4924633;28;20105;-81
2022/09/26 00:44:53;;;;;;;6.75;4.20;;;;;;;6.75;100.00;154227.97;4930234;29;20063;-80
2022/09/26 00:47:22;;;;;;;9.55;4.90;;;;;;;6.82;100.00;154245.88;4935309;28;20033;-80
2022/09/26 00:49:52;;;;;;;12.77;4.20;;;;;;;6.87;100.00;154257.38;4954605;28;20061;-81
2022/09/26 00:52:27;;;;;;;9.02;3.75;;;;;;;6.93;100.00;154271.47;4944875;28;20041;-80
2022/09/26 00:54:58;;;;;;;7.63;4.18;;;;;;;6.94;100.00;154274.03;4925983;29;20079;-80
2022/09/26 00:57:39;;;;;;;14.38;4.22;;;;;;;6.98;100.00;154284.28;4956481;28;20073;-79
2022/09/26 01:00:08;;;;;;;9.43;4.15;;;;;;;6.99;100.00;154286.84;4944589;29;20103;-80
2022/09/26 01:02:34;;;;;;;7.28;3.92;;;;;;;6.99;100.00;154286.84;4930856;28;20139;-81
2022/09/26 01:05:04;;;;;;;8.05;3.65;;;;;;;7.05;100.00;154300.94;4926957;29;20050;-80
2022/09/26 01:07:33;;;;;;;9.38;4.03;;;;;;;7.09;100.00;154311.16;4956878;28;20074;-79
2022/09/26 01:10:01;;;;;;;12.00;4.00;;;;;;;7.04;100.00;154298.34;4925787;29;20031;-78
2022/09/26 01:12:27;;;;;;;10.60;3.70;;;;;;;7.08;100.00;154308.59;4938259;28;20409;-78
2022/09/26 01:14:56;;;;;;;13.75;3.90;;;;;;;7.10;100.00;154313.69;4954009;28;20027;-82
2022/09/26 01:17:23;;;;;;;7.50;3.38;;;;;;;7.06;100.00;154303.47;4940551;28;20095;-80
2022/09/26 01:20:24;;;;;;;11.02;3.83;;;;;;;7.11;100.00;154316.28;4947978;29;20046;-80
2022/09/26 01:23:16;;;;;;;7.05;3.45;;;;;;;7.06;100.00;154303.47;4938312;28;20038;-80
2022/09/26 01:26:25;;;;;;;7.20;3.50;;;;;;;6.99;100.00;154288.13;4943953;29;20091;-81
2022/09/26 01:29:15;;;;;;;8.55;4.13;;;;;;;7.00;100.00;154289.38;4919414;29;20036;-81
2022/09/26 01:35:23;;;;;;;13.40;4.50;;;;;;;6.93;100.00;154272.78;4937841;29;20046;-81
2022/09/26 01:37:59;;;;;;;10.02;4.15;;;;;;;6.91;100.00;154267.66;4936009;28;20047;-81
2022/09/26 01:40:41;;;;;;;9.95;4.45;;;;;;;7.00;100.00;154289.38;4926552;28;20049;-81
2022/09/26 01:43:35;;;;;;;8.93;4.07;;;;;;;6.85;100.00;154251.00;4940669;28;20039;-81
2022/09/26 01:46:22;;;;;;;9.52;4.05;;;;;;;6.92;100.00;154270.19;4921223;29;20039;-81
2022/09/26 01:48:57;;;;;;;9.45;4.53;;;;;;;6.79;100.00;154238.19;4947325;28;20054;-82
2022/09/26 01:51:32;;;;;;;9.48;4.70;;;;;;;6.92;100.00;154268.94;4939076;28;20039;-82
2022/09/26 01:54:10;;;;;;;11.30;4.18;;;;;;;6.93;100.00;154272.78;4937348;29;20039;-83
2022/09/26 01:56:38;;;;;;;11.07;5.03;;;;;;;6.93;100.00;154271.47;4958148;28;20122;-82
2022/09/26 01:59:17;;;;;;;9.75;4.45;;;;;;;7.04;100.00;154299.63;4929737;29;20040;-82
2022/09/26 02:01:51;;;;;;;9.45;4.35;;;;;;;7.08;100.00;154309.84;4920569;29;20564;-83
2022/09/26 02:04:24;;;;;;;6.57;3.65;;;;;;;7.01;100.00;154293.25;4961021;28;20042;-83
2022/09/26 02:07:07;;;;;;;10.45;4.15;;;;;;;6.99;100.00;154288.13;4957366;28;20126;-84
2022/09/26 02:09:43;;;;;;;;;;;;;;;7.00;100.00;154290.66;4932203;28;20082;-81
2022/09/26 02:12:16;;;;;;;7.30;4.00;;;;;;;6.96;100.00;154280.44;4959876;28;19921;-82
2022/09/26 02:14:43;;;;;;;9.20;4.45;;;;;;;6.95;100.00;154276.56;4945512;29;20066;-83
2022/09/26 02:17:11;;;;;;;11.15;4.32;;;;;;;6.98;100.00;154284.28;4943234;29;20031;-83
2022/09/26 02:19:50;;;;;;;11.20;4.85;;;;;;;7.11;100.00;154316.28;4958575;28;20039;-83
2022/09/26 02:22:16;;;;;;;9.40;3.65;;;;;;;7.11;100.00;154316.28;4947092;28;20043;-82
2022/09/26 02:24:41;;;;;;;12.35;4.50;;;;;;;7.03;100.00;154297.09;4946923;29;20039;-84
2022/09/26 02:27:07;;;;;;;6.00;4.32;;;;;;;7.08;100.00;154309.84;4949908;28;20050;-83
2022/09/26 02:29:33;;;;;;;8.90;4.70;;;;;;;7.17;100.00;154331.63;4934560;28;20883;-83
2022/09/26 02:32:04;;;;;;;10.02;4.55;;;;;;;7.20;100.00;154340.59;4944779;29;20457;-83
2022/09/26 02:34:30;;;;;;;14.40;4.70;;;;;;;7.20;100.00;154340.59;4928823;28;20047;-84
2022/09/26 02:36:58;;;;;;;8.85;4.00;;;;;;;7.34;100.00;154373.88;4948413;29;20541;-82
2022/09/26 02:39:27;;;;;;;6.63;4.22;;;;;;;7.28;100.00;154358.53;4931204;28;20063;-83
2022/09/26 02:42:15;;;;;;;12.35;4.07;;;;;;;7.27;100.00;154357.25;4954862;29;20493;-82
2022/09/26 02:44:52;;;;;;;11.70;4.40;;;;;;;7.36;100.00;154379.00;4938821;28;20035;-82
2022/09/26 02:47:24;;;;;;;8.82;4.32;;;;;;;7.38;100.00;154385.44;4941933;28;20032;-85
2022/09/26 02:50:11;;;;;;;11.40;4.13;;;;;;;7.31;100.00;154367.50;4946135;29;20131;-83
2022/09/26 02:52:55;;;;;;;9.35;4.20;;;;;;;7.20;100.00;154339.34;4920008;29;20336;-82
2022/09/26 02:55:44;;;;;;;8.15;3.38;;;;;;;7.29;100.00;154361.06;4945956;28;20047;-85
2022/09/26 02:58:22;;;;;;;11.73;4.28;;;;;;;7.27;100.00;154357.25;4958555;28;20522;-84
2022/09/26 03:01:03;;;;;;;10.50;4.55;;;;;;;7.23;100.00;154346.97;4959374;28;20126;-85
2022/09/26 03:03:39;;;;;;;9.48;4.28;;;;;;;7.24;100.00;154348.28;4948871;28;20398;-84
2022/09/26 03:06:08;;;;;;;10.30;4.60;;;;;;;7.24;100.00;154349.56;4942057;29;20066;-82
2022/09/26 03:08:39;;;;;;;8.52;4.22;;;;;;;7.33;100.00;154372.59;4944013;28;20034;-83
2022/09/26 03:11:09;;;;;;;8.40;3.95;;;;;;;7.39;100.00;154387.97;4961273;28;20040;-83
2022/09/26 03:13:37;;;;;;;11.25;4.53;;;;;;;7.41;100.00;154393.06;4938466;29;20690;-83
2022/09/26 03:16:05;;;;;;;7.85;4.22;;;;;;;7.44;100.00;154399.50;4969237;28;20815;-82
2022/09/26 03:18:39;;;;;;;8.50;3.83;;;;;;;7.45;100.00;154402.03;4963047;28;20515;-82
2022/09/26 03:21:05;;;;;;;13.55;4.63;;;;;;;7.44;100.00;154398.19;4934891;28;20034;-82
2022/09/26 03:23:31;;;;;;;8.10;3.92;;;;;;;7.50;100.00;154413.59;4947122;28;20044;-82
2022/09/26 03:26:14;;;;;;;12.30;4.65;;;;;;;7.53;100.00;154422.50;4961054;28;20034;-81
2022/09/26 03:28:55;;;;;;;6.22;4.18;;;;;;;7.56;100.00;154430.22;4950508;28;20032;-82
2022/09/26 03:31:24;;;;;;;9.63;4.70;;;;;;;7.56;100.00;154428.94;4929456;28;20048;-82
2022/09/26 03:33:56;;;;;;;10.68;4.80;;;;;;;7.57;100.00;154432.78;4925797;29;20037;-84
2022/09/26 03:36:22;;;;;;;9.77;4.05;;;;;;;7.63;100.00;154445.56;4945825;28;20452;-83
2022/09/26 03:38:48;;;;;;;9.80;4.13;;;;;;;7.53;100.00;154422.50;4958599;28;20022;-83
2022/09/26 03:41:33;;;;;;;10.65;4.07;;;;;;;7.62;100.00;154443.03;4957855;28;20038;-83
2022/09/26 03:44:25;;;;;;;7.30;4.40;;;;;;;7.56;100.00;154430.22;4945363;28;20039;-82
2022/09/26 03:47:03;;;;;;;9.75;4.43;;;;;;;7.63;100.00;154446.88;4964060;28;20086;-83
2022/09/26 03:49:29;;;;;;;11.82;4.68;;;;;;;7.66;100.00;154453.25;4944619;28;20041;-84
2022/09/26 03:51:55;;;;;;;10.75;4.43;;;;;;;7.60;100.00;154440.44;4949192;28;20090;-83
2022/09/26 03:54:20;;;;;;;9.07;3.80;;;;;;;7.62;100.00;154444.28;4928339;28;20050;-83
2022/09/26 03:56:47;;;;;;;7.57;4.40;;;;;;;7.56;100.00;154428.94;4948905;28;20130;-81
2022/09/26 03:59:13;;;;;;;9.63;4.03;;;;;;;7.57;100.00;154431.47;4945460;28;20051;-82
2022/09/26 04:01:39;;;;;;;8.02;4.00;;;;;;;7.54;100.00;154425.09;4969966;28;20037;-83
2022/09/26 04:04:05;;;;;;;7.13;4.35;;;;;;;7.51;100.00;154417.41;4933919;28;20063;-81
2022/09/26 04:06:31;;;;;;;7.03;3.90;;;;;;;7.50;100.00;154414.84;4968231;28;20036;-81
2022/09/26 04:08:58;;;;;;;14.43;3.97;;;;;;;7.51;100.00;154417.41;4925134;29;20758;-85
2022/09/26 04:11:24;;;;;;;8.82;3.85;;;;;;;7.56;100.00;154430.22;4950470;28;20082;-83
2022/09/26 04:13:51;;;;;;;7.55;3.47;;;;;;;7.57;100.00;154432.78;4924500;29;20034;-83
2022/09/26 04:16:18;;;;;;;7.13;3.58;;;;;;;7.47;100.00;154407.16;4950512;28;20090;-83
2022/09/26 04:18:55;;;;;;;11.10;4.00;;;;;;;7.62;100.00;154444.28;4936320;28;20066;-85
2022/09/26 04:21:21;;;;;;;9.70;3.90;;;;;;;7.67;100.00;154455.84;4944689;28;20039;-82
2022/09/26 04:23:46;;;;;;;10.98;4.10;;;;;;;7.69;100.00;154460.97;4943551;29;20497;-84
2022/09/26 04:26:15;;;;;;;7.65;4.00;;;;;;;7.77;100.00;154482.69;4946913;28;20047;-84
2022/09/26 04:28:41;;;;;;;7.43;3.80;;;;;;;7.71;100.00;154467.34;4957081;28;20042;-84
2022/09/26 04:31:09;;;;;;;7.95;4.22;;;;;;;7.74;100.00;154473.72;4945573;29;20502;-84
2022/09/26 04:33:38;;;;;;;7.05;3.80;;;;;;;7.70;100.00;154464.78;4942947;29;20048;-83
2022/09/26 04:36:09;;;;;;;7.53;3.75;;;;;;;7.59;100.00;154436.59;4932058;29;20051;-84
2022/09/26 04:38:35;;;;;;;11.05;4.22;;;;;;;7.62;100.00;154444.28;4954865;28;20038;-82
2022/09/26 04:41:07;;;;;;;9.45;4.50;;;;;;;7.68;100.00;154459.66;4961954;28;20039;-84
2022/09/26 04:43:34;;;;;;;7.85;4.43;;;;;;;7.70;100.00;154464.78;4962515;28;20035;-83
2022/09/26 04:46:00;;;;;;;9.63;4.60;;;;;;;7.74;100.00;154475.06;4956233;28;20485;-84
2022/09/26 04:48:27;;;;;;;10.30;3.90;;;;;;;7.78;100.00;154485.28;4956219;28;20042;-85
2022/09/26 04:51:06;;;;;;;11.00;4.05;;;;;;;7.94;100.00;154523.69;4930744;29;20074;-83
2022/09/26 04:53:33;;;;;;;8.35;3.50;;;;;;;7.97;100.00;154531.41;4945701;28;20039;-84
2022/09/26 04:56:08;;;;;;;7.13;3.60;;;;;;;8.02;100.00;154544.16;4960246;29;20051;-83
2022/09/26 04:58:37;;;;;;;7.57;3.83;;;;;;;7.98;100.00;154533.94;4971093;28;20034;-85
2022/09/26 05:01:05;;;;;;;8.05;4.15;;;;;;;8.08;100.00;154559.56;4962953;29;20042;-85
2022/09/26 05:03:43;;;;;;;7.85;3.53;;;;;;;8.12;100.00;154568.56;4973072;28;20090;-84
2022/09/26 05:06:11;;;;;;;7.78;3.72;;;;;;;8.15;100.00;154577.47;4962562;28;20108;-82
2022/09/26 05:08:39;;;;;;;9.57;3.63;;;;;;;8.18;100.00;154583.91;4947220;29;20086;-82
2022/09/26 05:11:06;;;;;;;9.52;3.60;;;;;;;8.25;100.00;154601.84;4933240;29;20050;-83
2022/09/26 05:13:32;;;;;;;6.20;3.03;;;;;;;8.35;100.00;154627.44;4948713;29;20138;-85
2022/09/26 05:16:01;;;;;;;7.43;3.30;;;;;;;8.44;100.00;154647.97;4931938;29;20486;-84
2022/09/26 05:18:27;;;;;;;8.07;3.58;;;;;;;8.32;100.00;154618.47;4946364;28;20086;-83
2022/09/26 05:20:55;;;;;;;8.10;3.30;;;;;;;8.29;100.00;154610.81;4939351;28;20485;-84
2022/09/26 05:26:21;;;;;;;5.22;3.30;;;;;;;8.36;100.00;154630.03;4954851;28;20122;-84
2022/09/26 05:28:50;;;;;;;8.40;3.30;;;;;;;8.42;100.00;154642.84;4937279;29;20042;-84
2022/09/26 05:31:18;;;;;;;7.93;3.58;;;;;;;8.40;100.00;154639.00;4946921;28;20112;-83
2022/09/26 05:33:45;;;;;;;9.23;3.30;;;;;;;8.37;100.00;154632.56;4951585;29;20039;-84
2022/09/26 05:36:12;;;;;;;7.65;3.10;;;;;;;8.47;100.00;154655.69;4938677;28;20030;-82
2022/09/26 05:38:38;;;;;;;8.73;2.88;;;;;;;8.58;100.00;154683.88;4943227;28;20073;-84
2022/09/26 05:41:04;;;;;;;7.43;3.15;;;;;;;8.56;100.00;154680.03;4931571;29;20039;-83
2022/09/26 05:43:32;;;;;;;11.65;3.22;;;;;;;8.52;100.00;154669.78;4935981;28;20053;-83
2022/09/26 05:45:59;;;;;;;7.93;2.90;;;;;;;8.58;100.00;154683.88;4970902;28;21714;-83
2022/09/26 05:48:29;;;;;;;9.85;2.88;;;;;;;8.61;100.00;154691.56;4946337;28;20047;-81
2022/09/26 05:50:55;;;;;;;5.13;2.80;;;;;;;8.66;100.00;154703.09;4956050;29;20409;-83
2022/09/26 05:53:21;;;;;;;8.57;2.83;;;;;;;8.58;100.00;154683.88;4969254;28;20042;-83
2022/09/26 05:55:51;;;;;;;7.20;2.67;;;;;;;8.60;100.00;154687.72;4931002;29;20042;-83
2022/09/26 05:58:31;;;;;;;5.50;2.58;;;;;;;8.70;100.00;154713.31;4952489;28;20043;-83
2022/09/26 06:01:28;;;;;;;5.38;2.67;;;;;;;8.72;100.00;154719.78;4909998;28;20043;-82
2022/09/26 06:04:03;;;;;;;5.05;2.40;;;;;;;8.76;100.00;154728.75;4934029;29;20055;-83
2022/09/26 06:06:35;;;;;;;4.50;2.60;;;;;;;8.80;100.00;154737.66;4947108;28;20035;-83
2022/09/26 06:09:08;;;;;;;2.92;2.15;;;;;;;8.80;100.00;154738.97;4932893;29;20038;-82
2022/09/26 06:11:46;;;;;;;9.30;2.95;;;;;;;8.85;100.00;154750.50;4965776;28;20031;-83
2022/09/26 06:14:11;;;;;;;5.03;2.30;;;;;;;8.85;100.00;154750.50;4951169;28;20123;-82
2022/09/26 06:16:37;;;;;;;6.43;2.40;;;;;;;8.93;100.00;154771.03;4949884;28;20038;-82
2022/09/26 06:19:02;;;;;;;5.88;2.17;;;;;;;8.88;100.00;154759.47;4957070;28;20043;-82
2022/09/26 06:21:28;;;;;;;6.03;2.65;;;;;;;8.92;100.00;154769.72;4966822;28;20083;-82
2022/09/26 06:24:07;;;;;;;5.50;2.70;;;;;;;8.94;100.00;154773.56;4950979;29;20031;-82
2022/09/26 06:26:34;;;;;;;7.93;2.58;;;;;;;8.92;100.00;154768.44;4936014;28;20090;-84
2022/09/26 06:29:01;;;;;;;4.65;2.45;;;;;;;8.88;100.00;154759.47;4953757;29;20078;-82
2022/09/26 06:31:32;;;;;;;6.97;3.15;;;;;;;8.96;100.00;154779.97;4931942;28;20039;-82
2022/09/26 06:34:11;;;;;;;4.90;3.05;;;;;;;8.92;100.00;154769.72;4964422;28;20035;-84
2022/09/26 06:36:46;;;;;;;5.05;3.03;;;;;;;8.91;100.00;154767.19;4933709;29;20047;-83
2022/09/26 06:39:13;;;;;;;5.30;3.60;;;;;;;8.96;100.00;154778.69;4931175;28;20031;-82
2022/09/26 06:41:39;;;;;;;5.43;3.08;;;;;;;9.08;100.00;154809.47;4937265;29;20131;-83
2022/09/26 06:44:26;;;;;;;6.55;3.30;;;;;;;9.09;100.00;154810.75;4942436;28;20035;-83
2022/09/26 06:47:11;;;;;;;7.47;3.20;;;;;;;9.19;100.00;154836.34;4972353;28;20051;-83
2022/09/26 06:49:38;;;;;;;7.50;3.20;;;;;;;9.24;100.00;154849.19;4935465;28;20129;-83
2022/09/26 06:52:24;;;;;;;7.40;3.28;;;;;;;9.26;100.00;154854.31;4976187;28;20038;-84
2022/09/26 06:54:50;;;;;;;6.85;3.20;;;;;;;9.37;100.00;154881.25;4946872;29;20410;-83
2022/09/26 06:57:16;;;;;;;4.65;2.90;;;;;;;9.40;100.00;154887.63;4932241;28;20122;-84
2022/09/26 06:59:43;;;;;;;4.63;3.30;;;;;;;9.41;100.00;154890.22;4937182;29;20039;-83
2022/09/26 07:02:18;;;;;;;7.38;3.30;;;;;;;9.52;100.00;154918.41;4937258;29;20027;-82
2022/09/26 07:05:01;;;;;;;6.10;3.58;;;;;;;9.59;100.00;154935.06;4943335;29;20146;-84
2022/09/26 07:07:45;;;;;;;6.57;3.30;;;;;;;9.63;100.00;154946.63;4946537;28;20042;-83
2022/09/26 07:10:20;;;;;;;7.65;3.60;;;;;;;9.71;100.00;154967.13;4952539;28;20047;-84
2022/09/26 07:13:04;;;;;;;5.80;3.30;;;;;;;9.79;100.00;154986.34;4938137;29;20130;-83
2022/09/26 07:15:32;;;;;;;6.53;3.60;;;;;;;9.71;100.00;154967.13;4948476;28;20087;-84
2022/09/26 07:18:01;;;;;;;5.88;3.45;;;;;;;9.79;100.00;154985.09;4941981;28;20043;-84
2022/09/26 07:20:39;;;;;;;8.13;3.72;;;;;;;9.68;100.00;154959.47;4968672;28;20094;-83
2022/09/26 07:23:15;;;;;;;6.50;2.78;;;;;;;9.50;100.00;154914.56;4938058;28;20085;-83
2022/09/26 07:25:45;;;;;;;6.60;3.20;;;;;;;9.34;100.00;154873.53;4945774;29;20030;-84
2022/09/26 07:28:11;;;;;;;9.07;3.40;;;;;;;9.29;100.00;154860.75;4944740;29;20560;-83
2022/09/26 07:30:46;;;;;;;3.30;2.80;;;;;;;9.38;100.00;154883.81;4938030;29;20409;-83
2022/09/26 07:33:20;;;;;;;7.40;2.90;;;;;;;9.42;100.00;154892.75;4963455;28;20071;-83
2022/09/26 07:35:50;;;;;;;4.28;3.00;;;;;;;9.44;100.00;154899.19;4937331;29;20038;-83
2022/09/26 07:38:15;;;;;;;7.70;3.00;;;;;;;9.37;100.00;154879.97;4948100;28;20027;-83
2022/09/26 07:40:42;;;;;;;5.97;3.47;;;;;;;9.44;100.00;154899.19;4942227;29;20044;-84
2022/09/26 07:43:09;;;;;;;6.88;3.08;;;;;;;9.38;100.00;154883.81;4919486;29;20040;-83
2022/09/26 07:51:25;;;;;;;8.90;3.35;;;;;;;9.60;100.00;154938.91;4967735;28;20071;-83
2022/09/26 07:53:52;;;;;;;5.65;3.70;;;;;;;9.62;100.00;154944.03;4949667;28;20039;-82
2022/09/26 07:56:42;;;;;;;8.38;4.35;;;;;;;9.76;100.00;154978.69;4917528;29;20051;-84
2022/09/26 07:59:40;;;;;;;5.30;3.80;;;;;;;9.83;100.00;154996.66;4933496;28;20069;-84
2022/09/26 08:02:23;;;;;;;9.20;4.70;;;;;;;9.86;100.00;155004.31;4932273;28;20071;-84
2022/09/26 08:04:49;;;;;;;9.48;5.13;;;;;;;9.88;100.00;155008.19;4949844;29;20046;-84
2022/09/26 08:07:17;;;;;;;10.18;4.70;;;;;;;9.96;100.00;155027.41;4936836;28;20043;-83
2022/09/26 08:09:52;;;;;;;8.55;4.78;;;;;;;10.02;100.00;155044.09;4939910;28;20050;-84
2022/09/26 08:12:37;;;;;;;7.70;4.57;;;;;;;10.08;100.00;155058.22;4963299;28;20509;-84
2022/09/26 08:15:23;;;;;;;9.55;5.07;;;;;;;10.21;100.00;155091.56;4941504;28;20044;-85
2022/09/26 08:17:59;;;;;;;10.73;4.70;;;;;;;10.27;100.00;155106.94;4947025;29;20035;-85
2022/09/26 08:20:25;;;;;;;10.07;4.72;;;;;;;10.37;100.00;155131.34;4948470;28;20524;-84
2022/09/26 08:22:54;;;;;;;12.02;5.55;;;;;;;10.58;100.00;155182.66;4967885;28;20028;-83
2022/09/26 08:25:19;;;;;;;6.88;4.78;;;;;;;10.67;100.00;155207.03;4971728;28;20042;-82
2022/09/26 08:27:57;;;;;;;11.38;4.38;;;;;;;10.76;100.00;155227.59;4945023;29;20131;-85
2022/09/26 08:30:24;;;;;;;9.10;5.05;;;;;;;10.80;100.00;155237.84;4942571;28;20110;-84
2022/09/26 08:32:53;;;;;;;8.55;5.13;;;;;;;10.93;100.00;155271.22;4949801;29;20035;-85
2022/09/26 08:35:19;;;;;;;9.10;5.38;;;;;;;11.00;100.00;155289.19;4953739;28;20030;-84
2022/09/26 08:38:14;;;;;;;7.88;4.75;;;;;;;11.14;100.00;155322.53;4937553;28;20047;-84
2022/09/26 08:40:48;;;;;;;7.65;4.47;;;;;;;11.22;100.00;155343.06;4969530;28;20031;-84
2022/09/26 08:43:50;;;;;;;9.95;5.07;;;;;;;11.30;100.00;155364.91;4946684;28;20039;-82
2022/09/26 08:49:38;;;;;;;9.85;4.78;;;;;;;11.47;100.00;155405.94;4936502;28;20489;-80
2022/09/26 08:52:15;;;;;;;9.85;4.60;;;;;;;11.50;100.00;155413.66;4958665;28;20046;-82
2022/09/26 08:54:45;;;;;;;13.27;5.35;;;;;;;11.52;100.00;155417.53;4952144;28;20058;-80
2022/09/26 08:57:30;;;;;;;7.45;4.20;;;;;;;11.55;100.00;155425.25;4966014;28;20032;-81
2022/09/26 08:59:56;;;;;;;10.90;5.07;;;;;;;11.49;100.00;155412.38;4942103;29;20126;-82
2022/09/26 09:02:32;;;;;;;8.13;4.95;;;;;;;11.59;100.00;155435.50;4942810;28;20039;-82
2022/09/26 09:05:10;;;;;;;9.77;4.50;;;;;;;11.74;100.00;155474.00;4956743;28;20585;-82
2022/09/26 09:07:44;;;;;;;8.25;4.45;;;;;;;11.75;100.00;155475.28;4929555;29;20143;-82
2022/09/26 09:10:23;;;;;;;11.07;4.57;;;;;;;11.80;100.00;155489.41;4932139;28;20034;-82
2022/09/26 09:13:54;;;;;;;8.23;4.38;;;;;;;11.91;100.00;155515.16;4944249;28;20405;-81
2022/09/26 09:17:25;;;;;;;7.45;4.30;;;;;;;12.10;100.00;155563.94;4964187;28;20434;-82
2022/09/26 09:20:20;;;;;;;6.45;4.50;;;;;;;12.02;100.00;155543.41;4955694;28;20154;-80
2022/09/26 09:23:49;;;;;;;6.43;4.18;;;;;;;12.20;100.00;155589.59;4970450;28;20107;-81
2022/09/26 09:26:34;;;;;;;7.53;4.32;;;;;;;12.19;100.00;155587.06;4963047;28;20035;-81
2022/09/26 09:29:17;;;;;;;5.97;3.30;;;;;;;12.31;100.00;155615.31;4968380;28;20031;-81
2022/09/26 09:31:55;;;;;;;7.00;4.00;;;;;;;12.38;100.00;155633.28;4948899;29;20110;-80
2022/09/26 09:34:50;;;;;;;7.38;4.00;;;;;;;12.40;100.00;155639.72;4954281;28;20063;-79
2022/09/26 09:37:36;;;;;;;7.88;4.15;;;;;;;12.45;100.00;155652.56;4956033;28;20514;-82
2022/09/26 09:40:32;;;;;;;7.43;4.05;;;;;;;12.36;100.00;155628.16;4964232;28;20086;-81
2022/09/26 09:43:04;;;;;;;10.20;4.07;;;;;;;12.38;100.00;155634.56;4953038;28;20039;-82
2022/09/26 09:45:45;;;;;;;8.75;3.97;;;;;;;12.28;100.00;155608.84;4948528;28;20035;-81
2022/09/26 09:48:12;;;;;;;5.53;3.20;;;;;;;12.31;100.00;155616.56;4937293;28;20491;-80
2022/09/26 09:50:55;;;;;;;5.95;3.80;;;;;;;12.23;100.00;155597.31;4967026;28;20035;-81
2022/09/26 09:53:42;;;;;;;6.82;2.92;;;;;;;12.36;100.00;155628.16;4948749;28;20093;-79
2022/09/26 09:56:30;;;;;;;8.55;3.42;;;;;;;12.30;100.00;155614.03;4929659;29;20035;-82
2022/09/26 09:59:17;;;;;;;8.45;3.13;;;;;;;12.19;100.00;155585.78;4941344;29;20039;-82
2022/09/26 10:02:12;;;;;;;7.88;3.10;;;;;;;12.19;100.00;155585.78;4941864;28;20034;-81
2022/09/26 10:04:45;;;;;;;7.88;3.72;;;;;;;12.25;100.00;155602.44;4941541;28;20055;-81
2022/09/26 10:07:12;;;;;;;7.10;2.88;;;;;;;12.20;100.00;155588.31;4939940;28;20063;-80
2022/09/26 10:09:45;;;;;;;7.75;2.75;;;;;;;12.29;100.00;155610.19;4949151;29;20051;-80
2022/09/26 10:12:35;;;;;;;7.78;2.60;;;;;;;12.30;100.00;155612.72;4935702;28;20070;-80
2022/09/26 10:15:25;;;;;;;4.53;2.40;;;;;;;12.41;100.00;155640.97;4959784;28;20054;-80
2022/09/26 10:18:17;;;;;;;3.95;2.20;;;;;;;12.48;100.00;155658.97;4969584;28;20113;-81
2022/09/26 10:21:05;;;;;;;4.65;2.15;;;;;;;12.56;100.00;155678.22;4932741;28;20098;-81
2022/09/26 10:23:41;;;;;;;6.72;2.17;;;;;;;12.62;100.00;155693.63;4924013;28;20134;-81
2022/09/26 10:26:13;;;;;;;4.95;1.95;;;;;;;12.58;100.00;155684.69;4930397;28;20066;-81
2022/09/26 10:28:48;;;;;;;4.22;2.10;;;;;;;12.53;100.00;155670.56;4961168;28;20039;-80
2022/09/26 10:31:28;;;;;;;5.35;2.17;;;;;;;12.51;100.00;155665.38;4931978;28;20043;-81
2022/09/26 10:34:31;;;;;;;3.00;2.20;;;;;;;12.61;100.00;155691.09;4938401;29;20063;-82
2022/09/26 10:37:20;;;;;;;4.63;1.85;;;;;;;12.69;100.00;155711.63;4941255;29;20497;-80
2022/09/26 10:42:42;;;;;;;7.38;1.90;;;;;;;12.82;100.00;155745.03;4964886;28;20031;-80
2022/09/26 10:45:14;;;;;;;8.13;1.98;;;;;;;12.81;100.00;155741.22;4945245;29;20059;-80
2022/09/26 10:48:05;;;;;;;4.80;1.95;;;;;;;12.63;100.00;155697.50;4956167;28;20031;-80
2022/09/26 10:50:52;;;;;;;8.65;2.35;;;;;;;12.65;100.00;155701.34;4964533;28;20715;-81
2022/09/26 10:53:38;;;;;;;5.60;2.00;;;;;;;12.59;100.00;155687.22;4942517;28;20035;-78
2022/09/26 10:56:13;;;;;;;4.63;2.15;;;;;;;12.79;100.00;155736.03;4946963;28;20042;-81
2022/09/26 10:58:43;;;;;;;3.85;1.95;;;;;;;12.87;100.00;155755.34;4953960;28;20119;-78
2022/09/26 11:01:25;;;;;;;4.53;2.10;;;;;;;12.92;100.00;155769.47;4927449;28;20087;-80
2022/09/26 11:03:54;;;;;;;5.30;2.03;;;;;;;13.10;100.00;155814.41;4945510;29;20038;-80
2022/09/26 11:06:44;;;;;;;8.02;2.35;;;;;;;13.26;100.00;155854.28;4957078;28;20518;-80
2022/09/26 11:09:19;;;;;;;7.25;2.08;;;;;;;13.19;100.00;155837.56;4944371;28;20067;-82
2022/09/26 11:12:29;;;;;;;6.05;1.90;;;;;;;13.03;100.00;155797.75;4963448;28;20037;-80
2022/09/26 11:15:09;;;;;;;4.90;2.00;;;;;;;12.97;100.00;155781.00;4948609;29;20062;-81
2022/09/26 11:17:46;;;;;;;4.10;1.80;;;;;;;12.88;100.00;155759.16;4939675;29;20440;-80
2022/09/26 11:20:38;;;;;;;5.25;2.05;;;;;;;12.78;100.00;155734.75;4956769;28;20040;-80
2022/09/26 11:23:18;;;;;;;4.20;2.10;;;;;;;12.71;100.00;155715.50;4920645;29;20055;-80
2022/09/26 11:25:58;;;;;;;5.07;1.77;;;;;;;12.72;100.00;155718.09;4969251;28;20059;-81
2022/09/26 11:28:33;;;;;;;4.45;2.22;;;;;;;12.45;100.00;155651.25;4944099;28;20043;-80
2022/09/26 11:31:22;;;;;;;;;;;;;;;12.39;100.00;155637.13;4936384;29;20496;-81
2022/09/26 11:33:58;;;;;;;4.28;2.30;;;;;;;12.33;100.00;155621.72;4964512;28;19913;-82
2022/09/26 11:37:13;;;;;;;5.00;1.98;;;;;;;12.21;100.00;155590.91;4952403;28;20039;-81
2022/09/26 11:39:52;;;;;;;5.13;1.90;;;;;;;12.13;100.00;155571.66;4932139;29;20023;-80
2022/09/26 11:42:41;;;;;;;6.35;2.40;;;;;;;11.95;100.00;155526.69;4923229;28;20067;-81
2022/09/26 11:45:33;;;;;;;4.38;2.08;;;;;;;11.90;100.00;155512.56;4952843;28;20038;-80
2022/09/26 11:48:47;;;;;;;8.10;2.40;;;;;;;11.81;100.00;155490.66;4959629;28;20484;-79
2022/09/26 11:52:13;;;;;;;6.28;2.65;;;;;;;11.74;100.00;155474.00;4957524;28;20156;-81
2022/09/26 11:55:05;;;;;;;6.07;2.50;;;;;;;11.80;100.00;155489.41;4950685;29;20035;-80
2022/09/26 11:57:44;;;;;;;8.95;2.85;;;;;;;11.68;100.00;155458.63;4952145;28;20150;-80
2022/09/26 12:00:29;;;;;;;5.97;2.40;;;;;;;11.72;100.00;155467.59;4951317;29;20043;-80
2022/09/26 12:03:04;;;;;;;6.43;2.78;;;;;;;11.65;100.00;155452.16;4950799;28;20081;-79
2022/09/26 12:06:03;;;;;;;7.30;2.70;;;;;;;11.54;100.00;155423.91;4961525;28;20082;-81
2022/09/26 12:08:46;;;;;;;8.00;2.90;;;;;;;11.57;100.00;155430.38;4936739;28;20059;-81
2022/09/26 12:11:23;;;;;;;6.20;2.40;;;;;;;11.59;100.00;155436.78;4947073;28;20071;-80
2022/09/26 12:14:15;;;;;;;6.78;2.50;;;;;;;11.59;100.00;155435.50;4943522;29;20082;-80
2022/09/26 12:16:57;;;;;;;3.72;2.10;;;;;;;11.63;100.00;155447.03;4940976;29;20042;-78
2022/09/26 12:19:46;;;;;;;4.43;2.47;;;;;;;11.69;100.00;155461.16;4938549;28;20071;-82